Terminal Aerodrome Forecast
Issued by NWS Sterling, VA

Current Version | Previous Version | Text Only | Print | Product List | Glossary Off
Versions: 1 2 3 4 5 6 7 8 9 10 11 12 13 14 15 16 17 18 19 20 21 22 23

000
FTUS41 KLWX 301746
TAFMRB
TAF
KMRB 301746Z 3018/0118 VRB04KT P6SM -SHRA BKN050 OVC080
     FM301900 VRB04KT 6SM -TSRA BKN045CB OVC080
     FM302200 06008KT 6SM -SHRA OVC030
     FM010600 03008KT P6SM OVC010
     FM011300 03007KT P6SM BKN035=

USA.gov is the U.S. government's official web portal to all federal, state and local government web resources and services.